sensor_id;sensor_type;location;lat;lon;timestamp;P1;durP1;ratioP1;P2;durP2;ratioP2
22646;SDS011;11490;42.726;23.268;2023-03-30T00:02:25;2.63;;;2.17;;
22646;SDS011;11490;42.726;23.268;2023-03-30T00:04:55;2.58;;;2.38;;
22646;SDS011;11490;42.726;23.268;2023-03-30T00:07:27;2.78;;;2.17;;
22646;SDS011;11490;42.726;23.268;2023-03-30T00:09:54;2.83;;;2.17;;
22646;SDS011;11490;42.726;23.268;2023-03-30T00:12:20;1.80;;;1.70;;
22646;SDS011;11490;42.726;23.268;2023-03-30T00:14:46;2.65;;;2.25;;
22646;SDS011;11490;42.726;23.268;2023-03-30T00:17:11;3.05;;;2.30;;
22646;SDS011;11490;42.726;23.268;2023-03-30T00:19:36;3.80;;;2.53;;
22646;SDS011;11490;42.726;23.268;2023-03-30T00:22:06;1.90;;;1.80;;
22646;SDS011;11490;42.726;23.268;2023-03-30T00:24:33;4.00;;;3.13;;
22646;SDS011;11490;42.726;23.268;2023-03-30T00:27:01;7.38;;;2.75;;
22646;SDS011;11490;42.726;23.268;2023-03-30T00:29:27;2.90;;;2.58;;
22646;SDS011;11490;42.726;23.268;2023-03-30T00:31:53;2.20;;;2.00;;
22646;SDS011;11490;42.726;23.268;2023-03-30T00:34:18;2.08;;;1.90;;
22646;SDS011;11490;42.726;23.268;2023-03-30T00:36:44;2.42;;;2.22;;
22646;SDS011;11490;42.726;23.268;2023-03-30T00:39:11;3.28;;;2.55;;
22646;SDS011;11490;42.726;23.268;2023-03-30T00:41:37;2.55;;;2.22;;
22646;SDS011;11490;42.726;23.268;2023-03-30T00:44:07;2.90;;;2.60;;
22646;SDS011;11490;42.726;23.268;2023-03-30T00:46:52;3.80;;;2.50;;
22646;SDS011;11490;42.726;23.268;2023-03-30T00:49:18;2.42;;;2.22;;
22646;SDS011;11490;42.726;23.268;2023-03-30T00:51:45;2.38;;;2.00;;
22646;SDS011;11490;42.726;23.268;2023-03-30T00:54:15;2.33;;;2.13;;
22646;SDS011;11490;42.726;23.268;2023-03-30T00:56:42;2.97;;;2.67;;
22646;SDS011;11490;42.726;23.268;2023-03-30T00:59:08;4.70;;;2.28;;
22646;SDS011;11490;42.726;23.268;2023-03-30T01:01:34;3.42;;;2.58;;
22646;SDS011;11490;42.726;23.268;2023-03-30T01:04:02;3.03;;;2.72;;
22646;SDS011;11490;42.726;23.268;2023-03-30T01:06:29;4.28;;;2.85;;
22646;SDS011;11490;42.726;23.268;2023-03-30T01:08:56;2.72;;;2.40;;
22646;SDS011;11490;42.726;23.268;2023-03-30T01:11:22;5.28;;;3.35;;
22646;SDS011;11490;42.726;23.268;2023-03-30T01:13:50;4.40;;;2.97;;
22646;SDS011;11490;42.726;23.268;2023-03-30T01:19:22;4.00;;;2.30;;
22646;SDS011;11490;42.726;23.268;2023-03-30T01:25:03;2.47;;;2.28;;
22646;SDS011;11490;42.726;23.268;2023-03-30T01:28:08;3.15;;;2.55;;
22646;SDS011;11490;42.726;23.268;2023-03-30T01:45:00;3.05;;;2.78;;
22646;SDS011;11490;42.726;23.268;2023-03-30T01:47:37;2.95;;;2.75;;
22646;SDS011;11490;42.726;23.268;2023-03-30T01:50:20;3.42;;;2.38;;
22646;SDS011;11490;42.726;23.268;2023-03-30T01:55:24;4.18;;;2.97;;
22646;SDS011;11490;42.726;23.268;2023-03-30T02:00:27;2.80;;;2.60;;
22646;SDS011;11490;42.726;23.268;2023-03-30T02:02:55;2.30;;;2.10;;
22646;SDS011;11490;42.726;23.268;2023-03-30T02:05:25;3.17;;;2.88;;
22646;SDS011;11490;42.726;23.268;2023-03-30T02:07:53;3.20;;;2.70;;
22646;SDS011;11490;42.726;23.268;2023-03-30T02:10:23;3.03;;;2.45;;
22646;SDS011;11490;42.726;23.268;2023-03-30T02:12:52;4.90;;;3.25;;
22646;SDS011;11490;42.726;23.268;2023-03-30T02:15:21;2.88;;;2.58;;
22646;SDS011;11490;42.726;23.268;2023-03-30T02:17:50;2.00;;;1.90;;
22646;SDS011;11490;42.726;23.268;2023-03-30T02:20:15;2.42;;;2.13;;
22646;SDS011;11490;42.726;23.268;2023-03-30T02:22:41;2.70;;;2.50;;
22646;SDS011;11490;42.726;23.268;2023-03-30T02:25:08;3.88;;;3.30;;
22646;SDS011;11490;42.726;23.268;2023-03-30T02:27:34;2.92;;;2.70;;
22646;SDS011;11490;42.726;23.268;2023-03-30T02:30:02;3.42;;;3.08;;
22646;SDS011;11490;42.726;23.268;2023-03-30T02:32:50;2.97;;;2.78;;
22646;SDS011;11490;42.726;23.268;2023-03-30T02:38:21;3.45;;;2.92;;
22646;SDS011;11490;42.726;23.268;2023-03-30T02:43:54;4.20;;;3.25;;
22646;SDS011;11490;42.726;23.268;2023-03-30T02:47:24;2.60;;;2.40;;
22646;SDS011;11490;42.726;23.268;2023-03-30T02:49:52;2.60;;;2.40;;
22646;SDS011;11490;42.726;23.268;2023-03-30T02:55:21;3.92;;;2.80;;
22646;SDS011;11490;42.726;23.268;2023-03-30T02:57:59;3.25;;;2.42;;
22646;SDS011;11490;42.726;23.268;2023-03-30T03:03:11;3.28;;;2.72;;
22646;SDS011;11490;42.726;23.268;2023-03-30T03:05:43;6.18;;;3.78;;
22646;SDS011;11490;42.726;23.268;2023-03-30T03:08:11;4.13;;;2.92;;
22646;SDS011;11490;42.726;23.268;2023-03-30T03:10:38;3.90;;;3.08;;
22646;SDS011;11490;42.726;23.268;2023-03-30T03:13:04;3.30;;;2.97;;
22646;SDS011;11490;42.726;23.268;2023-03-30T03:15:29;4.65;;;3.13;;
22646;SDS011;11490;42.726;23.268;2023-03-30T03:17:55;2.92;;;2.55;;
22646;SDS011;11490;42.726;23.268;2023-03-30T03:20:22;3.78;;;3.17;;
22646;SDS011;11490;42.726;23.268;2023-03-30T03:22:47;2.92;;;2.30;;
22646;SDS011;11490;42.726;23.268;2023-03-30T03:25:13;3.97;;;3.35;;
22646;SDS011;11490;42.726;23.268;2023-03-30T03:27:39;4.00;;;3.40;;
22646;SDS011;11490;42.726;23.268;2023-03-30T03:30:05;3.53;;;3.15;;
22646;SDS011;11490;42.726;23.268;2023-03-30T03:32:31;5.40;;;3.65;;
22646;SDS011;11490;42.726;23.268;2023-03-30T03:34:57;4.90;;;3.67;;
22646;SDS011;11490;42.726;23.268;2023-03-30T03:37:22;5.93;;;4.30;;
22646;SDS011;11490;42.726;23.268;2023-03-30T03:39:47;6.10;;;4.40;;
22646;SDS011;11490;42.726;23.268;2023-03-30T03:42:13;8.05;;;4.28;;
22646;SDS011;11490;42.726;23.268;2023-03-30T03:44:38;3.47;;;2.75;;
22646;SDS011;11490;42.726;23.268;2023-03-30T03:47:04;4.90;;;3.88;;
22646;SDS011;11490;42.726;23.268;2023-03-30T03:49:30;4.70;;;3.30;;
22646;SDS011;11490;42.726;23.268;2023-03-30T03:51:56;4.32;;;3.63;;
22646;SDS011;11490;42.726;23.268;2023-03-30T03:54:21;6.07;;;3.65;;
22646;SDS011;11490;42.726;23.268;2023-03-30T03:56:46;5.57;;;4.47;;
22646;SDS011;11490;42.726;23.268;2023-03-30T03:59:12;5.68;;;4.43;;
22646;SDS011;11490;42.726;23.268;2023-03-30T04:01:37;5.10;;;3.72;;
22646;SDS011;11490;42.726;23.268;2023-03-30T04:04:03;3.50;;;2.88;;
22646;SDS011;11490;42.726;23.268;2023-03-30T04:06:28;3.75;;;3.20;;
22646;SDS011;11490;42.726;23.268;2023-03-30T04:08:53;5.13;;;3.17;;
22646;SDS011;11490;42.726;23.268;2023-03-30T04:11:20;2.83;;;2.63;;
22646;SDS011;11490;42.726;23.268;2023-03-30T04:13:46;4.15;;;3.65;;
22646;SDS011;11490;42.726;23.268;2023-03-30T04:16:12;4.50;;;3.83;;
22646;SDS011;11490;42.726;23.268;2023-03-30T04:18:37;3.60;;;3.30;;
22646;SDS011;11490;42.726;23.268;2023-03-30T04:21:05;4.25;;;3.42;;
22646;SDS011;11490;42.726;23.268;2023-03-30T04:23:32;5.05;;;3.55;;
22646;SDS011;11490;42.726;23.268;2023-03-30T04:26:02;3.10;;;2.80;;
22646;SDS011;11490;42.726;23.268;2023-03-30T04:28:29;4.22;;;3.65;;
22646;SDS011;11490;42.726;23.268;2023-03-30T04:31:00;6.63;;;3.22;;
22646;SDS011;11490;42.726;23.268;2023-03-30T04:33:27;3.92;;;3.42;;
22646;SDS011;11490;42.726;23.268;2023-03-30T04:35:54;4.90;;;3.47;;
22646;SDS011;11490;42.726;23.268;2023-03-30T04:38:20;12.30;;;5.03;;
22646;SDS011;11490;42.726;23.268;2023-03-30T04:40:49;6.95;;;4.22;;
22646;SDS011;11490;42.726;23.268;2023-03-30T04:43:18;4.80;;;3.95;;
22646;SDS011;11490;42.726;23.268;2023-03-30T04:45:52;5.30;;;3.97;;
22646;SDS011;11490;42.726;23.268;2023-03-30T04:48:20;5.03;;;4.32;;
22646;SDS011;11490;42.726;23.268;2023-03-30T04:50:47;4.75;;;4.25;;
22646;SDS011;11490;42.726;23.268;2023-03-30T04:53:15;3.72;;;3.38;;
22646;SDS011;11490;42.726;23.268;2023-03-30T04:55:41;4.45;;;3.47;;
22646;SDS011;11490;42.726;23.268;2023-03-30T04:58:11;4.53;;;3.42;;
22646;SDS011;11490;42.726;23.268;2023-03-30T05:00:37;5.03;;;3.38;;
22646;SDS011;11490;42.726;23.268;2023-03-30T05:03:03;3.92;;;3.42;;
22646;SDS011;11490;42.726;23.268;2023-03-30T05:05:29;3.88;;;3.10;;
22646;SDS011;11490;42.726;23.268;2023-03-30T05:07:54;5.72;;;3.53;;
22646;SDS011;11490;42.726;23.268;2023-03-30T05:10:20;8.18;;;3.42;;
22646;SDS011;11490;42.726;23.268;2023-03-30T05:12:45;4.18;;;3.58;;
22646;SDS011;11490;42.726;23.268;2023-03-30T05:15:11;8.55;;;4.90;;
22646;SDS011;11490;42.726;23.268;2023-03-30T05:17:36;3.53;;;3.20;;
22646;SDS011;11490;42.726;23.268;2023-03-30T05:20:03;4.90;;;3.65;;
22646;SDS011;11490;42.726;23.268;2023-03-30T05:22:32;19.77;;;8.07;;
22646;SDS011;11490;42.726;23.268;2023-03-30T05:24:58;5.03;;;4.05;;
22646;SDS011;11490;42.726;23.268;2023-03-30T05:27:23;7.18;;;5.43;;
22646;SDS011;11490;42.726;23.268;2023-03-30T05:29:49;5.65;;;3.75;;
22646;SDS011;11490;42.726;23.268;2023-03-30T05:32:15;5.47;;;4.80;;
22646;SDS011;11490;42.726;23.268;2023-03-30T05:34:40;7.97;;;4.53;;
22646;SDS011;11490;42.726;23.268;2023-03-30T05:37:06;8.48;;;4.25;;
22646;SDS011;11490;42.726;23.268;2023-03-30T05:39:31;6.50;;;4.85;;
22646;SDS011;11490;42.726;23.268;2023-03-30T05:41:56;5.22;;;3.50;;
22646;SDS011;11490;42.726;23.268;2023-03-30T05:44:31;3.35;;;3.05;;
22646;SDS011;11490;42.726;23.268;2023-03-30T05:47:14;3.63;;;3.25;;
22646;SDS011;11490;42.726;23.268;2023-03-30T05:49:42;6.93;;;4.70;;
22646;SDS011;11490;42.726;23.268;2023-03-30T05:52:11;5.65;;;4.07;;
22646;SDS011;11490;42.726;23.268;2023-03-30T05:54:37;9.50;;;5.78;;
22646;SDS011;11490;42.726;23.268;2023-03-30T05:57:07;6.47;;;3.72;;
22646;SDS011;11490;42.726;23.268;2023-03-30T05:59:33;5.95;;;5.18;;
22646;SDS011;11490;42.726;23.268;2023-03-30T06:01:58;8.85;;;5.80;;
22646;SDS011;11490;42.726;23.268;2023-03-30T06:04:24;7.88;;;4.97;;
22646;SDS011;11490;42.726;23.268;2023-03-30T06:06:51;9.27;;;5.53;;
22646;SDS011;11490;42.726;23.268;2023-03-30T06:09:17;5.18;;;3.65;;
22646;SDS011;11490;42.726;23.268;2023-03-30T06:11:43;6.13;;;4.25;;
22646;SDS011;11490;42.726;23.268;2023-03-30T06:14:09;5.28;;;4.32;;
22646;SDS011;11490;42.726;23.268;2023-03-30T06:16:34;7.43;;;4.53;;
22646;SDS011;11490;42.726;23.268;2023-03-30T06:19:01;16.10;;;8.27;;
22646;SDS011;11490;42.726;23.268;2023-03-30T06:21:27;6.72;;;5.32;;
22646;SDS011;11490;42.726;23.268;2023-03-30T06:23:52;6.28;;;4.05;;
22646;SDS011;11490;42.726;23.268;2023-03-30T06:26:22;6.45;;;4.85;;
22646;SDS011;11490;42.726;23.268;2023-03-30T06:28:48;9.13;;;4.13;;
22646;SDS011;11490;42.726;23.268;2023-03-30T06:31:14;6.50;;;5.57;;
22646;SDS011;11490;42.726;23.268;2023-03-30T06:33:46;6.47;;;4.45;;
22646;SDS011;11490;42.726;23.268;2023-03-30T06:36:34;7.00;;;5.32;;
22646;SDS011;11490;42.726;23.268;2023-03-30T06:39:02;5.43;;;4.10;;
22646;SDS011;11490;42.726;23.268;2023-03-30T06:41:31;10.15;;;4.13;;
22646;SDS011;11490;42.726;23.268;2023-03-30T06:43:59;6.00;;;3.58;;
22646;SDS011;11490;42.726;23.268;2023-03-30T06:46:25;4.25;;;3.80;;
22646;SDS011;11490;42.726;23.268;2023-03-30T06:49:03;7.13;;;5.32;;
22646;SDS011;11490;42.726;23.268;2023-03-30T06:54:45;8.65;;;5.30;;
22646;SDS011;11490;42.726;23.268;2023-03-30T06:57:11;5.20;;;3.80;;
22646;SDS011;11490;42.726;23.268;2023-03-30T06:59:39;8.23;;;4.40;;
22646;SDS011;11490;42.726;23.268;2023-03-30T07:02:34;5.72;;;3.92;;
22646;SDS011;11490;42.726;23.268;2023-03-30T07:05:21;9.50;;;4.88;;
22646;SDS011;11490;42.726;23.268;2023-03-30T07:08:28;24.10;;;11.70;;
22646;SDS011;11490;42.726;23.268;2023-03-30T07:11:31;7.32;;;4.97;;
22646;SDS011;11490;42.726;23.268;2023-03-30T07:14:08;7.22;;;3.53;;
22646;SDS011;11490;42.726;23.268;2023-03-30T07:17:04;5.38;;;3.53;;
22646;SDS011;11490;42.726;23.268;2023-03-30T07:19:38;7.90;;;4.82;;
22646;SDS011;11490;42.726;23.268;2023-03-30T07:22:04;12.70;;;6.18;;
22646;SDS011;11490;42.726;23.268;2023-03-30T07:24:43;15.68;;;7.50;;
22646;SDS011;11490;42.726;23.268;2023-03-30T07:27:09;10.60;;;7.00;;
22646;SDS011;11490;42.726;23.268;2023-03-30T07:29:35;13.25;;;5.88;;
22646;SDS011;11490;42.726;23.268;2023-03-30T07:32:01;4.75;;;3.70;;
22646;SDS011;11490;42.726;23.268;2023-03-30T07:34:27;6.40;;;4.05;;
22646;SDS011;11490;42.726;23.268;2023-03-30T07:36:53;18.38;;;8.45;;
22646;SDS011;11490;42.726;23.268;2023-03-30T07:39:29;25.92;;;9.48;;
22646;SDS011;11490;42.726;23.268;2023-03-30T07:41:55;10.43;;;5.47;;
22646;SDS011;11490;42.726;23.268;2023-03-30T07:44:24;11.77;;;5.80;;
22646;SDS011;11490;42.726;23.268;2023-03-30T07:46:58;11.82;;;5.88;;
22646;SDS011;11490;42.726;23.268;2023-03-30T07:49:37;8.35;;;5.65;;
22646;SDS011;11490;42.726;23.268;2023-03-30T07:52:03;6.80;;;4.18;;
22646;SDS011;11490;42.726;23.268;2023-03-30T07:54:29;6.82;;;3.85;;
22646;SDS011;11490;42.726;23.268;2023-03-30T07:56:54;8.60;;;5.60;;
22646;SDS011;11490;42.726;23.268;2023-03-30T07:59:20;8.73;;;5.18;;
22646;SDS011;11490;42.726;23.268;2023-03-30T08:01:47;6.32;;;3.58;;
22646;SDS011;11490;42.726;23.268;2023-03-30T08:04:22;8.95;;;5.20;;
22646;SDS011;11490;42.726;23.268;2023-03-30T08:06:49;4.38;;;3.50;;
22646;SDS011;11490;42.726;23.268;2023-03-30T08:09:16;14.65;;;4.00;;
22646;SDS011;11490;42.726;23.268;2023-03-30T08:11:42;5.85;;;2.85;;
22646;SDS011;11490;42.726;23.268;2023-03-30T08:14:07;4.68;;;2.97;;
22646;SDS011;11490;42.726;23.268;2023-03-30T08:16:33;10.38;;;3.65;;
22646;SDS011;11490;42.726;23.268;2023-03-30T08:18:59;4.00;;;3.15;;
22646;SDS011;11490;42.726;23.268;2023-03-30T08:21:24;7.53;;;3.47;;
22646;SDS011;11490;42.726;23.268;2023-03-30T08:23:51;4.72;;;3.15;;
22646;SDS011;11490;42.726;23.268;2023-03-30T08:26:17;3.78;;;3.40;;
22646;SDS011;11490;42.726;23.268;2023-03-30T08:28:43;6.68;;;3.10;;
22646;SDS011;11490;42.726;23.268;2023-03-30T08:31:08;4.55;;;3.63;;
22646;SDS011;11490;42.726;23.268;2023-03-30T08:33:37;4.03;;;3.03;;
22646;SDS011;11490;42.726;23.268;2023-03-30T08:36:03;4.60;;;3.33;;
22646;SDS011;11490;42.726;23.268;2023-03-30T08:38:29;4.50;;;3.15;;
22646;SDS011;11490;42.726;23.268;2023-03-30T08:40:54;4.70;;;3.38;;
22646;SDS011;11490;42.726;23.268;2023-03-30T08:43:38;6.50;;;3.83;;
22646;SDS011;11490;42.726;23.268;2023-03-30T08:46:13;3.72;;;2.60;;
22646;SDS011;11490;42.726;23.268;2023-03-30T08:48:40;11.35;;;3.78;;
22646;SDS011;11490;42.726;23.268;2023-03-30T08:53:58;5.97;;;3.30;;
22646;SDS011;11490;42.726;23.268;2023-03-30T08:56:27;8.10;;;3.03;;
22646;SDS011;11490;42.726;23.268;2023-03-30T09:04:50;5.38;;;2.92;;
22646;SDS011;11490;42.726;23.268;2023-03-30T09:07:26;4.82;;;2.70;;
22646;SDS011;11490;42.726;23.268;2023-03-30T09:09:55;5.93;;;3.10;;
22646;SDS011;11490;42.726;23.268;2023-03-30T09:12:32;8.13;;;4.85;;
22646;SDS011;11490;42.726;23.268;2023-03-30T09:15:06;5.00;;;3.45;;
22646;SDS011;11490;42.726;23.268;2023-03-30T09:18:11;8.57;;;4.20;;
22646;SDS011;11490;42.726;23.268;2023-03-30T09:20:47;8.43;;;4.97;;
22646;SDS011;11490;42.726;23.268;2023-03-30T09:23:16;5.38;;;3.20;;
22646;SDS011;11490;42.726;23.268;2023-03-30T09:31:18;3.40;;;2.45;;
22646;SDS011;11490;42.726;23.268;2023-03-30T09:39:15;6.90;;;2.80;;
22646;SDS011;11490;42.726;23.268;2023-03-30T09:44:31;2.80;;;2.15;;
22646;SDS011;11490;42.726;23.268;2023-03-30T09:47:37;3.20;;;2.63;;
22646;SDS011;11490;42.726;23.268;2023-03-30T09:50:06;3.38;;;2.13;;
22646;SDS011;11490;42.726;23.268;2023-03-30T09:52:40;4.13;;;3.45;;
22646;SDS011;11490;42.726;23.268;2023-03-30T09:55:32;3.80;;;2.22;;
22646;SDS011;11490;42.726;23.268;2023-03-30T09:58:25;3.92;;;2.10;;
22646;SDS011;11490;42.726;23.268;2023-03-30T10:01:09;4.13;;;2.30;;
22646;SDS011;11490;42.726;23.268;2023-03-30T10:03:40;4.80;;;2.78;;
22646;SDS011;11490;42.726;23.268;2023-03-30T10:11:41;3.38;;;2.05;;
22646;SDS011;11490;42.726;23.268;2023-03-30T10:14:30;7.15;;;1.92;;
22646;SDS011;11490;42.726;23.268;2023-03-30T10:16:58;3.03;;;2.25;;
22646;SDS011;11490;42.726;23.268;2023-03-30T10:19:25;4.72;;;2.20;;
22646;SDS011;11490;42.726;23.268;2023-03-30T10:21:54;3.35;;;2.10;;
22646;SDS011;11490;42.726;23.268;2023-03-30T10:24:25;2.78;;;2.08;;
22646;SDS011;11490;42.726;23.268;2023-03-30T10:27:16;3.00;;;2.17;;
22646;SDS011;11490;42.726;23.268;2023-03-30T10:29:45;2.00;;;1.75;;
22646;SDS011;11490;42.726;23.268;2023-03-30T10:32:16;2.17;;;1.63;;
22646;SDS011;11490;42.726;23.268;2023-03-30T10:34:46;2.05;;;1.77;;
22646;SDS011;11490;42.726;23.268;2023-03-30T10:37:26;3.92;;;2.65;;
22646;SDS011;11490;42.726;23.268;2023-03-30T10:39:58;4.25;;;2.55;;
22646;SDS011;11490;42.726;23.268;2023-03-30T10:42:35;9.05;;;4.43;;
22646;SDS011;11490;42.726;23.268;2023-03-30T10:45:02;6.93;;;3.88;;
22646;SDS011;11490;42.726;23.268;2023-03-30T10:52:43;4.97;;;2.80;;
22646;SDS011;11490;42.726;23.268;2023-03-30T10:55:29;7.47;;;3.10;;
22646;SDS011;11490;42.726;23.268;2023-03-30T11:00:49;3.13;;;1.98;;
22646;SDS011;11490;42.726;23.268;2023-03-30T11:03:16;4.75;;;2.00;;
22646;SDS011;11490;42.726;23.268;2023-03-30T11:05:49;3.42;;;2.75;;
22646;SDS011;11490;42.726;23.268;2023-03-30T11:10:44;2.65;;;1.80;;
22646;SDS011;11490;42.726;23.268;2023-03-30T11:13:14;3.28;;;1.88;;
22646;SDS011;11490;42.726;23.268;2023-03-30T11:15:50;3.42;;;2.20;;
22646;SDS011;11490;42.726;23.268;2023-03-30T11:18:28;2.85;;;1.80;;
22646;SDS011;11490;42.726;23.268;2023-03-30T11:21:18;2.15;;;1.45;;
22646;SDS011;11490;42.726;23.268;2023-03-30T11:23:55;2.13;;;1.75;;
22646;SDS011;11490;42.726;23.268;2023-03-30T11:29:04;3.97;;;1.73;;
22646;SDS011;11490;42.726;23.268;2023-03-30T11:34:13;3.15;;;1.98;;
22646;SDS011;11490;42.726;23.268;2023-03-30T11:39:55;4.00;;;2.08;;
22646;SDS011;11490;42.726;23.268;2023-03-30T11:42:30;3.47;;;2.45;;
22646;SDS011;11490;42.726;23.268;2023-03-30T11:44:56;2.75;;;1.88;;
22646;SDS011;11490;42.726;23.268;2023-03-30T11:50:00;3.42;;;1.98;;
22646;SDS011;11490;42.726;23.268;2023-03-30T11:53:12;2.30;;;2.05;;
22646;SDS011;11490;42.726;23.268;2023-03-30T12:03:43;2.55;;;1.73;;
22646;SDS011;11490;42.726;23.268;2023-03-30T12:08:58;6.35;;;2.42;;
22646;SDS011;11490;42.726;23.268;2023-03-30T12:13:58;4.45;;;2.15;;
22646;SDS011;11490;42.726;23.268;2023-03-30T12:16:29;5.40;;;2.10;;
22646;SDS011;11490;42.726;23.268;2023-03-30T12:21:37;4.22;;;2.10;;
22646;SDS011;11490;42.726;23.268;2023-03-30T12:26:36;3.03;;;1.77;;
22646;SDS011;11490;42.726;23.268;2023-03-30T12:34:28;3.55;;;2.00;;
22646;SDS011;11490;42.726;23.268;2023-03-30T12:39:45;3.80;;;1.80;;
22646;SDS011;11490;42.726;23.268;2023-03-30T12:42:24;2.60;;;1.70;;
22646;SDS011;11490;42.726;23.268;2023-03-30T12:47:32;4.30;;;1.92;;
22646;SDS011;11490;42.726;23.268;2023-03-30T13:03:45;4.55;;;2.15;;
22646;SDS011;11490;42.726;23.268;2023-03-30T13:06:23;8.80;;;3.85;;
22646;SDS011;11490;42.726;23.268;2023-03-30T13:12:19;1.77;;;1.45;;
22646;SDS011;11490;42.726;23.268;2023-03-30T13:15:40;2.35;;;1.92;;
22646;SDS011;11490;42.726;23.268;2023-03-30T13:17:59;1.95;;;1.65;;
22646;SDS011;11490;42.726;23.268;2023-03-30T13:20:32;3.75;;;1.50;;
22646;SDS011;11490;42.726;23.268;2023-03-30T13:23:04;3.45;;;1.58;;
22646;SDS011;11490;42.726;23.268;2023-03-30T13:33:48;2.58;;;1.77;;
22646;SDS011;11490;42.726;23.268;2023-03-30T13:36:23;2.10;;;1.52;;
22646;SDS011;11490;42.726;23.268;2023-03-30T13:42:29;5.47;;;1.52;;
22646;SDS011;11490;42.726;23.268;2023-03-30T13:52:34;3.45;;;2.33;;
22646;SDS011;11490;42.726;23.268;2023-03-30T13:55:03;2.40;;;1.85;;
22646;SDS011;11490;42.726;23.268;2023-03-30T13:57:34;4.60;;;1.98;;
22646;SDS011;11490;42.726;23.268;2023-03-30T14:06:00;4.80;;;2.28;;
22646;SDS011;11490;42.726;23.268;2023-03-30T14:08:32;2.00;;;1.80;;
22646;SDS011;11490;42.726;23.268;2023-03-30T14:11:01;5.22;;;1.92;;
22646;SDS011;11490;42.726;23.268;2023-03-30T14:13:32;1.88;;;1.77;;
22646;SDS011;11490;42.726;23.268;2023-03-30T14:16:01;3.13;;;2.13;;
22646;SDS011;11490;42.726;23.268;2023-03-30T14:18:26;3.42;;;2.30;;
22646;SDS011;11490;42.726;23.268;2023-03-30T14:20:56;2.85;;;1.30;;
22646;SDS011;11490;42.726;23.268;2023-03-30T14:26:23;3.00;;;2.22;;
22646;SDS011;11490;42.726;23.268;2023-03-30T14:29:01;2.67;;;1.95;;
22646;SDS011;11490;42.726;23.268;2023-03-30T14:31:36;3.47;;;1.95;;
22646;SDS011;11490;42.726;23.268;2023-03-30T14:36:58;3.85;;;2.40;;
22646;SDS011;11490;42.726;23.268;2023-03-30T14:39:25;3.90;;;2.40;;
22646;SDS011;11490;42.726;23.268;2023-03-30T14:41:53;3.38;;;1.95;;
22646;SDS011;11490;42.726;23.268;2023-03-30T14:44:20;1.60;;;1.38;;
22646;SDS011;11490;42.726;23.268;2023-03-30T14:46:48;2.05;;;1.50;;
22646;SDS011;11490;42.726;23.268;2023-03-30T14:49:26;3.63;;;2.47;;
22646;SDS011;11490;42.726;23.268;2023-03-30T14:52:00;2.70;;;1.88;;
22646;SDS011;11490;42.726;23.268;2023-03-30T14:54:33;2.40;;;1.92;;
22646;SDS011;11490;42.726;23.268;2023-03-30T14:57:00;2.60;;;1.60;;
22646;SDS011;11490;42.726;23.268;2023-03-30T14:59:29;1.67;;;1.58;;
22646;SDS011;11490;42.726;23.268;2023-03-30T15:01:58;2.53;;;2.00;;
22646;SDS011;11490;42.726;23.268;2023-03-30T15:04:32;4.68;;;2.53;;
22646;SDS011;11490;42.726;23.268;2023-03-30T15:07:01;3.33;;;2.05;;
22646;SDS011;11490;42.726;23.268;2023-03-30T15:09:27;3.72;;;1.50;;
22646;SDS011;11490;42.726;23.268;2023-03-30T15:12:02;3.55;;;1.80;;
22646;SDS011;11490;42.726;23.268;2023-03-30T15:14:38;2.75;;;2.42;;
22646;SDS011;11490;42.726;23.268;2023-03-30T15:17:08;4.30;;;2.65;;
22646;SDS011;11490;42.726;23.268;2023-03-30T15:19:39;3.70;;;2.20;;
22646;SDS011;11490;42.726;23.268;2023-03-30T15:22:22;1.90;;;1.67;;
22646;SDS011;11490;42.726;23.268;2023-03-30T15:24:57;4.47;;;1.80;;
22646;SDS011;11490;42.726;23.268;2023-03-30T15:27:26;2.00;;;1.60;;
22646;SDS011;11490;42.726;23.268;2023-03-30T15:29:53;4.03;;;3.13;;
22646;SDS011;11490;42.726;23.268;2023-03-30T15:32:29;4.07;;;2.60;;
22646;SDS011;11490;42.726;23.268;2023-03-30T15:37:52;3.75;;;2.53;;
22646;SDS011;11490;42.726;23.268;2023-03-30T15:40:26;3.97;;;2.08;;
22646;SDS011;11490;42.726;23.268;2023-03-30T15:46:02;2.35;;;1.42;;
22646;SDS011;11490;42.726;23.268;2023-03-30T15:48:40;4.63;;;2.08;;
22646;SDS011;11490;42.726;23.268;2023-03-30T15:51:13;3.20;;;1.63;;
22646;SDS011;11490;42.726;23.268;2023-03-30T15:53:41;2.75;;;1.70;;
22646;SDS011;11490;42.726;23.268;2023-03-30T15:56:16;2.10;;;1.45;;
22646;SDS011;11490;42.726;23.268;2023-03-30T15:58:45;4.22;;;1.73;;
22646;SDS011;11490;42.726;23.268;2023-03-30T16:01:16;4.05;;;2.10;;
22646;SDS011;11490;42.726;23.268;2023-03-30T16:03:50;5.22;;;2.13;;
22646;SDS011;11490;42.726;23.268;2023-03-30T16:06:19;3.00;;;2.00;;
22646;SDS011;11490;42.726;23.268;2023-03-30T16:08:45;2.92;;;2.03;;
22646;SDS011;11490;42.726;23.268;2023-03-30T16:11:10;7.25;;;3.45;;
22646;SDS011;11490;42.726;23.268;2023-03-30T16:13:40;16.63;;;5.78;;
22646;SDS011;11490;42.726;23.268;2023-03-30T16:16:07;15.07;;;4.85;;
22646;SDS011;11490;42.726;23.268;2023-03-30T16:18:32;8.65;;;4.35;;
22646;SDS011;11490;42.726;23.268;2023-03-30T16:20:58;8.27;;;4.72;;
22646;SDS011;11490;42.726;23.268;2023-03-30T16:23:26;13.93;;;6.65;;
22646;SDS011;11490;42.726;23.268;2023-03-30T16:25:51;11.85;;;6.97;;
22646;SDS011;11490;42.726;23.268;2023-03-30T16:28:17;13.23;;;6.65;;
22646;SDS011;11490;42.726;23.268;2023-03-30T16:30:43;15.13;;;6.20;;
22646;SDS011;11490;42.726;23.268;2023-03-30T16:33:11;12.90;;;5.28;;
22646;SDS011;11490;42.726;23.268;2023-03-30T16:35:36;9.18;;;5.53;;
22646;SDS011;11490;42.726;23.268;2023-03-30T16:38:02;5.95;;;4.00;;
22646;SDS011;11490;42.726;23.268;2023-03-30T16:42:59;6.32;;;4.10;;
22646;SDS011;11490;42.726;23.268;2023-03-30T16:45:24;9.80;;;4.68;;
22646;SDS011;11490;42.726;23.268;2023-03-30T16:47:52;22.92;;;12.20;;
22646;SDS011;11490;42.726;23.268;2023-03-30T16:53:29;31.42;;;15.38;;
22646;SDS011;11490;42.726;23.268;2023-03-30T16:55:54;21.08;;;14.60;;
22646;SDS011;11490;42.726;23.268;2023-03-30T16:58:22;19.48;;;11.35;;
22646;SDS011;11490;42.726;23.268;2023-03-30T17:00:48;25.75;;;14.60;;
22646;SDS011;11490;42.726;23.268;2023-03-30T17:03:16;23.80;;;12.05;;
22646;SDS011;11490;42.726;23.268;2023-03-30T17:05:42;17.77;;;12.20;;
22646;SDS011;11490;42.726;23.268;2023-03-30T17:08:19;26.48;;;10.55;;
22646;SDS011;11490;42.726;23.268;2023-03-30T17:10:45;17.23;;;8.35;;
22646;SDS011;11490;42.726;23.268;2023-03-30T17:13:11;10.65;;;7.32;;
22646;SDS011;11490;42.726;23.268;2023-03-30T17:15:37;11.73;;;8.05;;
22646;SDS011;11490;42.726;23.268;2023-03-30T17:18:06;14.45;;;7.47;;
22646;SDS011;11490;42.726;23.268;2023-03-30T17:20:45;14.40;;;8.93;;
22646;SDS011;11490;42.726;23.268;2023-03-30T17:23:16;14.48;;;8.80;;
22646;SDS011;11490;42.726;23.268;2023-03-30T17:25:42;21.25;;;11.07;;
22646;SDS011;11490;42.726;23.268;2023-03-30T17:28:15;15.65;;;10.95;;
22646;SDS011;11490;42.726;23.268;2023-03-30T17:30:45;22.38;;;13.45;;
22646;SDS011;11490;42.726;23.268;2023-03-30T17:33:11;16.05;;;8.88;;
22646;SDS011;11490;42.726;23.268;2023-03-30T17:35:37;26.05;;;9.90;;
22646;SDS011;11490;42.726;23.268;2023-03-30T17:38:03;18.40;;;9.88;;
22646;SDS011;11490;42.726;23.268;2023-03-30T17:40:31;11.07;;;7.32;;
22646;SDS011;11490;42.726;23.268;2023-03-30T17:42:57;10.07;;;5.45;;
22646;SDS011;11490;42.726;23.268;2023-03-30T17:45:24;10.45;;;5.78;;
22646;SDS011;11490;42.726;23.268;2023-03-30T17:47:53;13.35;;;7.72;;
22646;SDS011;11490;42.726;23.268;2023-03-30T17:50:26;14.15;;;6.30;;
22646;SDS011;11490;42.726;23.268;2023-03-30T17:52:54;16.73;;;9.32;;